Time,TemperatureF,DewpointF,PressureIn,WindDirection,WindDirectionDegrees,WindSpeedMPH,WindSpeedGustMPH,Humidity,HourlyPrecipIn,Conditions,Clouds,dailyrainin,SoftwareType,DateUTC
2013-05-15 00:02:00,70.0,38.0,-100.00,WSW,246,2.0,4.0,30,0.00,,,-99.99,,2013-05-15 06:02:00,
2013-05-15 00:11:00,70.0,38.0,-100.00,SSE,147,3.0,4.0,31,0.00,,,-99.99,,2013-05-15 06:11:00,
2013-05-15 00:21:00,69.0,37.0,-100.00,West,277,1.0,3.0,30,0.00,,,-99.99,,2013-05-15 06:21:00,
2013-05-15 00:31:00,69.0,37.0,-100.00,West,277,1.0,3.0,30,0.00,,,-99.99,,2013-05-15 06:31:00,
2013-05-15 00:41:00,69.0,37.0,-100.00,West,277,1.0,3.0,30,0.00,,,-99.99,,2013-05-15 06:41:00,
2013-05-15 00:52:00,68.0,36.0,-100.00,ESE,123,3.0,4.0,31,0.00,,,-99.99,,2013-05-15 06:52:00,
2013-05-15 01:00:00,67.0,37.0,-100.00,SW,224,1.0,2.0,32,0.00,,,-99.99,,2013-05-15 07:00:00,
2013-05-15 01:01:00,68.0,36.0,-100.00,ESE,123,3.0,4.0,31,0.00,,,-99.99,,2013-05-15 07:01:00,
2013-05-15 01:11:00,68.0,36.0,-100.00,ESE,123,3.0,4.0,31,0.00,,,-99.99,,2013-05-15 07:11:00,
2013-05-15 01:32:00,68.0,35.0,-100.00,NW,313,2.0,3.0,30,0.00,,,-99.99,,2013-05-15 07:32:00,
2013-05-15 01:41:00,67.0,37.0,-100.00,SW,224,1.0,2.0,32,0.00,,,-99.99,,2013-05-15 07:41:00,
2013-05-15 01:52:00,67.0,37.0,-100.00,SW,224,1.0,2.0,32,0.00,,,-99.99,,2013-05-15 07:52:00,
2013-05-15 02:00:00,68.0,36.0,-100.00,ENE,64,1.0,4.0,30,0.00,,,-99.99,,2013-05-15 08:00:00,
2013-05-15 02:21:00,68.0,36.0,-100.00,SSW,208,5.0,7.0,31,0.00,,,-99.99,,2013-05-15 08:21:00,
2013-05-15 02:32:00,68.0,36.0,-100.00,SSW,208,5.0,7.0,31,0.00,,,-99.99,,2013-05-15 08:32:00,
2013-05-15 02:42:00,68.0,36.0,-100.00,ENE,64,1.0,4.0,30,0.00,,,-99.99,,2013-05-15 08:42:00,
2013-05-15 02:53:00,68.0,36.0,-100.00,ENE,64,1.0,4.0,30,0.00,,,-99.99,,2013-05-15 08:53:00,
2013-05-15 03:21:00,67.0,36.0,-100.00,West,274,3.0,6.0,31,0.00,,,-99.99,,2013-05-15 09:21:00,
2013-05-15 03:32:00,67.0,36.0,-100.00,West,274,3.0,6.0,31,0.00,,,-99.99,,2013-05-15 09:32:00,
2013-05-15 03:42:00,67.0,36.0,-100.00,ESE,116,2.0,5.0,33,0.00,,,-99.99,,2013-05-15 09:42:00,
2013-05-15 03:53:00,67.0,36.0,-100.00,SW,232,2.0,3.0,32,0.00,,,-99.99,,2013-05-15 09:53:00,
2013-05-15 04:02:00,68.0,34.0,-100.00,WSW,251,9.0,15.0,29,0.00,,,-99.99,,2013-05-15 10:02:00,
2013-05-15 04:22:00,68.0,34.0,-100.00,SW,215,8.0,12.0,28,0.00,,,-99.99,,2013-05-15 10:22:00,
2013-05-15 04:32:00,68.0,34.0,-100.00,SW,215,8.0,12.0,28,0.00,,,-99.99,,2013-05-15 10:32:00,
2013-05-15 04:42:00,67.0,34.0,-100.00,West,264,3.0,6.0,29,0.00,,,-99.99,,2013-05-15 10:42:00,
2013-05-15 04:52:00,64.0,35.0,-100.00,SE,126,5.0,7.0,34,0.00,,,-99.99,,2013-05-15 10:52:00,
2013-05-15 05:07:00,64.0,35.0,-100.00,SE,126,5.0,7.0,34,0.00,,,-99.99,,2013-05-15 11:07:00,
2013-05-15 05:16:00,64.0,36.0,-100.00,NNE,27,4.0,5.0,35,0.00,,,-99.99,,2013-05-15 11:16:00,
2013-05-15 05:25:00,64.0,36.0,-100.00,North,3,5.0,7.0,35,0.00,,,-99.99,,2013-05-15 11:25:00,
2013-05-15 05:33:00,64.0,36.0,-100.00,North,3,5.0,7.0,35,0.00,,,-99.99,,2013-05-15 11:33:00,
2013-05-15 06:06:00,62.0,38.0,-100.00,ESE,114,5.0,7.0,40,0.00,,,-99.99,,2013-05-15 12:06:00,
2013-05-15 06:13:00,61.0,38.0,-100.00,NE,40,3.0,4.0,43,0.00,,,-99.99,,2013-05-15 12:13:00,
2013-05-15 06:30:00,59.0,38.0,-100.00,WNW,294,2.0,4.0,45,0.00,,,-99.99,,2013-05-15 12:30:00,
2013-05-15 06:35:00,61.0,39.0,-100.00,East,100,3.0,5.0,44,0.00,,,-99.99,,2013-05-15 12:35:00,
2013-05-15 07:24:00,59.0,38.0,-100.00,WNW,294,2.0,4.0,45,0.00,,,-99.99,,2013-05-15 13:24:00,
2013-05-15 07:30:00,60.0,39.0,-100.00,SE,131,3.0,4.0,45,0.00,,,-99.99,,2013-05-15 13:30:00,
2013-05-15 07:48:00,60.0,37.0,-100.00,WSW,254,1.0,2.0,42,0.00,,,-99.99,,2013-05-15 13:48:00,
2013-05-15 07:57:00,59.0,38.0,-100.00,SE,128,5.0,6.0,47,0.00,,,-99.99,,2013-05-15 13:57:00,
2013-05-15 08:03:00,60.0,39.0,-100.00,SE,131,3.0,4.0,45,0.00,,,-99.99,,2013-05-15 14:03:00,
2013-05-15 08:12:00,60.0,39.0,-100.00,SE,131,3.0,4.0,45,0.00,,,-99.99,,2013-05-15 14:12:00,
2013-05-15 08:25:00,60.0,39.0,-100.00,SE,131,3.0,4.0,45,0.00,,,-99.99,,2013-05-15 14:25:00,
2013-05-15 08:58:00,64.0,40.0,-100.00,NNE,17,4.0,6.0,42,0.00,,,-99.99,,2013-05-15 14:58:00,
2013-05-15 09:07:00,64.0,40.0,-100.00,NNE,17,4.0,6.0,42,0.00,,,-99.99,,2013-05-15 15:07:00,
2013-05-15 09:13:00,65.0,38.0,-100.00,NNE,13,4.0,8.0,36,0.00,,,-99.99,,2013-05-15 15:13:00,
2013-05-15 09:26:00,65.0,39.0,-100.00,NE,40,6.0,8.0,39,0.00,,,-99.99,,2013-05-15 15:26:00,
2013-05-15 09:35:00,65.0,39.0,-100.00,NE,40,6.0,8.0,39,0.00,,,-99.99,,2013-05-15 15:35:00,
2013-05-15 09:45:00,65.0,39.0,-100.00,ENE,76,6.0,8.0,38,0.00,,,-99.99,,2013-05-15 15:45:00,
2013-05-15 09:59:00,67.0,38.0,-100.00,North,350,4.0,5.0,35,0.00,,,-99.99,,2013-05-15 15:59:00,
2013-05-15 10:26:00,66.0,39.0,-100.00,NNW,337,7.0,13.0,37,0.00,,,-99.99,,2013-05-15 16:26:00,
2013-05-15 10:34:00,66.0,39.0,-100.00,NNW,337,7.0,13.0,37,0.00,,,-99.99,,2013-05-15 16:34:00,
2013-05-15 11:00:00,69.0,40.0,-100.00,North,357,6.0,9.0,34,0.00,,,-99.99,,2013-05-15 17:00:00,
2013-05-15 11:06:00,68.0,39.0,-100.00,NNW,347,7.0,9.0,34,0.00,,,-99.99,,2013-05-15 17:06:00,
2013-05-15 11:15:00,68.0,39.0,-100.00,NNW,347,7.0,9.0,34,0.00,,,-99.99,,2013-05-15 17:15:00,
2013-05-15 11:26:00,69.0,39.0,-100.00,NNE,24,6.0,10.0,34,0.00,,,-99.99,,2013-05-15 17:26:00,
2013-05-15 11:30:00,71.0,39.0,-100.00,NNW,329,6.0,8.0,31,0.00,,,-99.99,,2013-05-15 17:30:00,
2013-05-15 11:45:00,69.0,40.0,-100.00,North,357,6.0,9.0,34,0.00,,,-99.99,,2013-05-15 17:45:00,
2013-05-15 11:57:00,69.0,40.0,-100.00,North,357,6.0,9.0,34,0.00,,,-99.99,,2013-05-15 17:57:00,
2013-05-15 12:00:00,72.0,36.0,-100.00,WNW,296,5.0,7.0,27,0.00,,,-99.99,,2013-05-15 18:00:00,
2013-05-15 12:13:00,70.0,38.0,-100.00,North,357,9.0,11.0,32,0.00,,,-99.99,,2013-05-15 18:13:00,
2013-05-15 12:25:00,71.0,39.0,-100.00,NNW,329,6.0,8.0,31,0.00,,,-99.99,,2013-05-15 18:25:00,
2013-05-15 12:30:00,74.0,35.0,-100.00,NW,318,8.0,12.0,24,0.00,,,-99.99,,2013-05-15 18:30:00,
2013-05-15 12:48:00,72.0,36.0,-100.00,WNW,296,5.0,7.0,27,0.00,,,-99.99,,2013-05-15 18:48:00,
2013-05-15 12:56:00,72.0,36.0,-100.00,WNW,296,5.0,7.0,27,0.00,,,-99.99,,2013-05-15 18:56:00,
2013-05-15 13:14:00,74.0,35.0,-100.00,NW,318,8.0,12.0,24,0.00,,,-99.99,,2013-05-15 19:14:00,
2013-05-15 13:15:00,75.0,35.0,-100.00,NNW,340,9.0,14.0,23,0.00,,,-99.99,,2013-05-15 19:15:00,
2013-05-15 13:26:00,74.0,35.0,-100.00,NW,318,8.0,12.0,24,0.00,,,-99.99,,2013-05-15 19:26:00,
2013-05-15 13:44:00,74.0,35.0,-100.00,NW,323,7.0,9.0,24,0.00,,,-99.99,,2013-05-15 19:44:00,
2013-05-15 13:56:00,75.0,33.0,-100.00,NW,313,6.0,9.0,21,0.00,,,-99.99,,2013-05-15 19:56:00,
2013-05-15 14:05:00,75.0,35.0,-100.00,NNW,340,9.0,14.0,23,0.00,,,-99.99,,2013-05-15 20:05:00,
2013-05-15 14:15:00,76.0,35.0,-100.00,NNW,347,9.0,13.0,22,0.00,,,-99.99,,2013-05-15 20:15:00,
2013-05-15 14:26:00,75.0,33.0,-100.00,NNW,336,9.0,14.0,21,0.00,,,-99.99,,2013-05-15 20:26:00,
2013-05-15 14:35:00,75.0,33.0,-100.00,NNW,336,9.0,14.0,21,0.00,,,-99.99,,2013-05-15 20:35:00,
2013-05-15 14:44:00,75.0,33.0,-100.00,NNW,336,9.0,14.0,21,0.00,,,-99.99,,2013-05-15 20:44:00,
2013-05-15 14:55:00,77.0,33.0,-100.00,WNW,295,5.0,7.0,20,0.00,,,-99.99,,2013-05-15 20:55:00,
2013-05-15 15:15:00,77.0,34.0,-100.00,NE,47,6.0,10.0,21,0.00,,,-99.99,,2013-05-15 21:15:00,
2013-05-15 15:26:00,77.0,36.0,-100.00,NW,313,7.0,11.0,23,0.00,,,-99.99,,2013-05-15 21:26:00,
2013-05-15 15:30:00,78.0,33.0,-100.00,NNE,31,7.0,10.0,20,0.00,,,-99.99,,2013-05-15 21:30:00,
2013-05-15 15:38:00,77.0,36.0,-100.00,NW,313,7.0,11.0,23,0.00,,,-99.99,,2013-05-15 21:38:00,
2013-05-15 15:45:00,78.0,33.0,-100.00,North,4,8.0,12.0,19,0.00,,,-99.99,,2013-05-15 21:45:00,
2013-05-15 15:47:00,78.0,34.0,-100.00,North,11,6.0,9.0,20,0.00,,,-99.99,,2013-05-15 21:47:00,
2013-05-15 15:59:00,77.0,34.0,-100.00,NE,47,6.0,10.0,21,0.00,,,-99.99,,2013-05-15 21:59:00,
2013-05-15 16:00:00,77.0,33.0,-100.00,NE,34,9.0,14.0,20,0.00,,,-99.99,,2013-05-15 22:00:00,
2013-05-15 16:07:00,77.0,34.0,-100.00,NE,47,6.0,10.0,21,0.00,,,-99.99,,2013-05-15 22:07:00,
2013-05-15 16:27:00,78.0,33.0,-100.00,NNE,31,7.0,10.0,20,0.00,,,-99.99,,2013-05-15 22:27:00,
2013-05-15 16:30:00,78.0,36.0,-100.00,NNW,330,6.0,9.0,22,0.00,,,-99.99,,2013-05-15 22:30:00,
2013-05-15 16:45:00,79.0,35.0,-100.00,WNW,302,5.0,7.0,20,0.00,,,-99.99,,2013-05-15 22:45:00,
2013-05-15 16:59:00,77.0,33.0,-100.00,NE,34,9.0,14.0,20,0.00,,,-99.99,,2013-05-15 22:59:00,
2013-05-15 17:14:00,78.0,35.0,-100.00,WNW,301,4.0,6.0,21,0.00,,,-99.99,,2013-05-15 23:14:00,
2013-05-15 17:15:00,79.0,36.0,-100.00,West,280,11.0,16.0,21,0.00,,,-99.99,,2013-05-15 23:15:00,
2013-05-15 17:27:00,78.0,36.0,-100.00,NNW,330,6.0,9.0,22,0.00,,,-99.99,,2013-05-15 23:27:00,
2013-05-15 17:45:00,77.0,36.0,-100.00,WNW,295,9.0,17.0,22,0.00,,,-99.99,,2013-05-15 23:45:00,
2013-05-15 18:00:00,79.0,36.0,-100.00,West,280,11.0,16.0,21,0.00,,,-99.99,,2013-05-16 00:00:00,
2013-05-15 18:25:00,77.0,36.0,-100.00,WNW,295,9.0,17.0,22,0.00,,,-99.99,,2013-05-16 00:25:00,
2013-05-15 18:35:00,77.0,36.0,-100.00,WNW,295,9.0,17.0,22,0.00,,,-99.99,,2013-05-16 00:35:00,
2013-05-15 18:58:00,76.0,36.0,-100.00,West,274,6.0,15.0,24,0.00,,,-99.99,,2013-05-16 00:58:00,
2013-05-15 19:05:00,76.0,36.0,-100.00,West,274,6.0,15.0,24,0.00,,,-99.99,,2013-05-16 01:05:00,
2013-05-15 19:14:00,74.0,36.0,-100.00,West,275,11.0,17.0,25,0.00,,,-99.99,,2013-05-16 01:14:00,
2013-05-15 19:25:00,73.0,36.0,-100.00,West,275,8.0,13.0,26,0.00,,,-99.99,,2013-05-16 01:25:00,
2013-05-15 19:34:00,73.0,36.0,-100.00,NW,322,3.0,5.0,26,0.00,,,-99.99,,2013-05-16 01:34:00,
2013-05-15 20:26:00,72.0,37.0,-100.00,WNW,285,4.0,6.0,27,0.00,,,-99.99,,2013-05-16 02:26:00,
2013-05-15 20:36:00,72.0,37.0,-100.00,West,280,5.0,8.0,27,0.00,,,-99.99,,2013-05-16 02:36:00,
2013-05-15 20:44:00,72.0,37.0,-100.00,West,280,5.0,8.0,27,0.00,,,-99.99,,2013-05-16 02:44:00,
2013-05-15 20:55:00,72.0,37.0,-100.00,West,280,5.0,8.0,27,0.00,,,-99.99,,2013-05-16 02:55:00,
2013-05-15 21:14:00,71.0,38.0,-100.00,West,267,3.0,5.0,30,0.00,,,-99.99,,2013-05-16 03:14:00,
2013-05-15 21:24:00,70.0,38.0,-100.00,West,267,3.0,7.0,30,0.00,,,-99.99,,2013-05-16 03:24:00,
2013-05-15 21:33:00,70.0,37.0,-100.00,SW,236,1.0,2.0,30,0.00,,,-99.99,,2013-05-16 03:33:00,
2013-05-15 21:44:00,70.0,37.0,-100.00,SW,236,1.0,2.0,30,0.00,,,-99.99,,2013-05-16 03:44:00,
2013-05-15 21:56:00,68.0,38.0,-100.00,SE,144,5.0,7.0,34,0.00,,,-99.99,,2013-05-16 03:56:00,
2013-05-15 22:02:00,68.0,38.0,-100.00,SE,144,5.0,7.0,34,0.00,,,-99.99,,2013-05-16 04:02:00,
2013-05-15 22:12:00,68.0,38.0,-100.00,SSE,164,7.0,9.0,33,0.00,,,-99.99,,2013-05-16 04:12:00,
2013-05-15 22:23:00,66.0,39.0,-100.00,SE,128,6.0,8.0,37,0.00,,,-99.99,,2013-05-16 04:23:00,
2013-05-15 22:33:00,66.0,38.0,-100.00,SSE,150,2.0,4.0,35,0.00,,,-99.99,,2013-05-16 04:33:00,
2013-05-15 22:42:00,66.0,38.0,-100.00,SSE,150,2.0,4.0,35,0.00,,,-99.99,,2013-05-16 04:42:00,
2013-05-15 22:53:00,65.0,38.0,-100.00,SE,141,2.0,3.0,37,0.00,,,-99.99,,2013-05-16 04:53:00,
2013-05-15 23:02:00,66.0,39.0,-100.00,SSE,150,8.0,9.0,37,0.00,,,-99.99,,2013-05-16 05:02:00,
2013-05-15 23:12:00,66.0,39.0,-100.00,SSE,150,8.0,9.0,37,0.00,,,-99.99,,2013-05-16 05:12:00,
2013-05-15 23:22:00,65.0,39.0,-100.00,SSE,167,6.0,9.0,39,0.00,,,-99.99,,2013-05-16 05:22:00,
2013-05-15 23:32:00,64.0,39.0,-100.00,SE,137,7.0,8.0,40,0.00,,,-99.99,,2013-05-16 05:32:00,
2013-05-15 23:42:00,64.0,39.0,-100.00,SE,137,7.0,8.0,40,0.00,,,-99.99,,2013-05-16 05:42:00,
2013-05-15 23:52:00,67.0,38.0,-100.00,SSW,199,2.0,3.0,35,0.00,,,-99.99,,2013-05-16 05:52:00,